Terminal Aerodrome Forecast
Issued by NWS

Home | Current Version | Previous Version | Text Only | Print | Product List | Glossary Off
Versions: 1 2 3 4 5 6 7 8 9 10 11 12 13 14 15 16 17 18

566
FTUS43 KFGF 080529
TAFBJI
TAF
KBJI 080529Z 0806/0906 31016G24KT 3SM -SN OVC015
     FM081000 32014KT 5SM -SN OVC015
     FM081300 32017KT P6SM OVC020=

USA.gov is the U.S. government's official web portal to all federal, state and local government web resources and services.